Seawolf — WDE7235 — position and weather

sailwx.info

Track history (hours):
 
Tides and Currents Weather Stations Pressure Air Temp Water Temp Dewpoint Dewpoint Depression Visibility Wind Speed Wind Dir Waves Ship Positions

Oceanographic research ship Seawolf (United States)

Owner: School of Marine and Atmospheric Sciences, Stony Brook University, NY, Stony Brook, NY. More information available from US FCC via Universal Licensing System and Coast Guard Vessel Documentation Center.

Last reported at 2017-Aug-06 11:10 UTC. Time now 2017-Aug-17 01:42 UTC.
Position N 40°48' W 073°48'.
Warning: this ship's position is 10 days out of date.

Length 24 m; draft 3.5 m.

Type: Other ship. MMSI: 367390740.

Date/timePositionNaut miles runAvg speedWind from/ knotsBaromVisibWave heightAir tempDewpointWater temp
2017-Aug-06 11:10N 40°48' W 073°48'210.5
2017-Aug-06 11:00N 40°48' W 073°50'510.7
2017-Aug-06 10:30N 40°46' W 073°56'510.5
2017-Aug-06 10:00N 40°42' W 074°00'3 6.6
2017-Aug-06 09:30N 40°41' W 074°04'0 0.7
2017-Aug-06 09:00N 40°41' W 074°04'0 0.0
2017-Aug-06 08:30N 40°41' W 074°04'0 0.0
2017-Aug-06 08:00N 40°41' W 074°04'0 0.0
2017-Aug-06 07:30N 40°41' W 074°04'0 0.0
2017-Aug-06 07:00N 40°41' W 074°04'0 0.0
2017-Aug-06 06:30N 40°41' W 074°04'0 0.0
2017-Aug-06 06:00N 40°41' W 074°04'0 0.0
2017-Aug-06 05:30N 40°41' W 074°04'0 0.0
2017-Aug-06 05:00N 40°41' W 074°04'0 0.0
2017-Aug-06 04:30N 40°41' W 074°04'0 0.0
2017-Aug-06 04:00N 40°41' W 074°04'0 0.0
2017-Aug-06 03:30N 40°41' W 074°04'0 0.0
2017-Aug-06 03:00N 40°41' W 074°04'0 0.0
2017-Aug-06 02:30N 40°41' W 074°04'0 0.0
2017-Aug-06 02:00N 40°41' W 074°04'0 0.0
2017-Aug-06 01:30N 40°41' W 074°04'0 0.0
2017-Aug-06 01:00N 40°41' W 074°04'0 0.0
2017-Aug-06 00:30N 40°41' W 074°04'0 0.0
2017-Aug-06 00:00N 40°41' W 074°04'0 0.0
2017-Aug-05 23:30N 40°41' W 074°04'0 0.0
2017-Aug-05 23:00N 40°41' W 074°04'0 0.0
2017-Aug-05 22:30N 40°41' W 074°04'0 0.0
2017-Aug-05 22:00N 40°41' W 074°04'3 5.3
2017-Aug-05 21:30N 40°39' W 074°03'5 9.5
2017-Aug-05 20:59N 40°34' W 074°01'38 1.9
2017-Aug-05 01:05N 40°19' W 073°15'0 0.0
2017-Aug-05 00:54N 40°19' W 073°15'4 0.9
2017-Aug-04 19:56N 40°17' W 073°21'3 5.9
2017-Aug-04 19:27N 40°19' W 073°19'1 2.0
2017-Aug-04 18:57N 40°19' W 073°20'1 1.7
2017-Aug-04 18:30N 40°19' W 073°21'2 3.3
2017-Aug-04 18:00N 40°18' W 073°23'2 1.5
2017-Aug-04 16:49N 40°19' W 073°25'0 0.2
2017-Aug-04 16:26N 40°19' W 073°25'15 3.2
2017-Aug-04 11:46N 40°26' W 073°42'1 2.3
2017-Aug-04 11:30N 40°27' W 073°43'4 2.9
2017-Aug-04 09:59N 40°30' W 073°47'7 5.6
2017-Aug-04 08:45N 40°30' W 073°56'2 8.1
2017-Aug-04 08:27N 40°31' W 073°59'4 8.0
2017-Aug-04 08:00N 40°34' W 074°01'4 8.8
2017-Aug-04 07:30N 40°38' W 074°03'3 6.0
2017-Aug-04 07:00N 40°41' W 074°04'0 0.0
2017-Aug-04 06:30N 40°41' W 074°04'0 0.0
2017-Aug-04 06:00N 40°41' W 074°04'0 0.0
2017-Aug-04 05:30N 40°41' W 074°04'0 0.0
2017-Aug-04 05:00N 40°41' W 074°04'0 0.0
2017-Aug-04 04:30N 40°41' W 074°04'0 0.0
2017-Aug-04 04:00N 40°41' W 074°04'0 0.0
2017-Aug-04 03:30N 40°41' W 074°04'0 0.0
2017-Aug-04 03:00N 40°41' W 074°04'0 0.0
2017-Aug-04 02:30N 40°41' W 074°04'0 0.0
2017-Aug-04 02:00N 40°41' W 074°04'0 0.0
2017-Aug-04 01:30N 40°41' W 074°04'0 0.0
2017-Aug-04 01:00N 40°41' W 074°04'0 0.0
2017-Aug-04 00:30N 40°41' W 074°04'0 0.0
2017-Aug-04 00:00N 40°41' W 074°04'2 5.0
2017-Aug-03 23:30N 40°41' W 074°01'3 6.8
2017-Aug-03 23:00N 40°44' W 073°58'3 5.9
2017-Aug-03 22:26N 40°47' W 073°56'3 5.8
2017-Aug-03 21:59N 40°48' W 073°53'  
Track history (hours):
 
Tides and Currents Weather Stations Pressure Air Temp Water Temp Dewpoint Dewpoint Depression Visibility Wind Speed Wind Dir Waves Ship Positions

Oceanographic research ship Seawolf (United States)

Owner: School of Marine and Atmospheric Sciences, Stony Brook University, NY, Stony Brook, NY. More information available from US FCC via Universal Licensing System and Coast Guard Vessel Documentation Center.

Last reported at 2017-Aug-06 11:10 UTC. Time now 2017-Aug-17 01:42 UTC.
Position N 40°48' W 073°48'.
Warning: this ship's position is 10 days out of date.

Length 24 m; draft 3.5 m.

Type: Other ship. MMSI: 367390740.

Date/timePositionNaut miles runAvg speedWind from/ knotsBaromVisibWave heightAir tempDewpointWater temp
2017-Aug-06 11:10N 40°48' W 073°48'210.5
2017-Aug-06 11:00N 40°48' W 073°50'510.7
2017-Aug-06 10:30N 40°46' W 073°56'510.5
2017-Aug-06 10:00N 40°42' W 074°00'3 6.6
2017-Aug-06 09:30N 40°41' W 074°04'0 0.7
2017-Aug-06 09:00N 40°41' W 074°04'0 0.0
2017-Aug-06 08:30N 40°41' W 074°04'0 0.0
2017-Aug-06 08:00N 40°41' W 074°04'0 0.0
2017-Aug-06 07:30N 40°41' W 074°04'0 0.0
2017-Aug-06 07:00N 40°41' W 074°04'0 0.0
2017-Aug-06 06:30N 40°41' W 074°04'0 0.0
2017-Aug-06 06:00N 40°41' W 074°04'0 0.0
2017-Aug-06 05:30N 40°41' W 074°04'0 0.0
2017-Aug-06 05:00N 40°41' W 074°04'0 0.0
2017-Aug-06 04:30N 40°41' W 074°04'0 0.0
2017-Aug-06 04:00N 40°41' W 074°04'0 0.0
2017-Aug-06 03:30N 40°41' W 074°04'0 0.0
2017-Aug-06 03:00N 40°41' W 074°04'0 0.0
2017-Aug-06 02:30N 40°41' W 074°04'0 0.0
2017-Aug-06 02:00N 40°41' W 074°04'0 0.0
2017-Aug-06 01:30N 40°41' W 074°04'0 0.0
2017-Aug-06 01:00N 40°41' W 074°04'0 0.0
2017-Aug-06 00:30N 40°41' W 074°04'0 0.0
2017-Aug-06 00:00N 40°41' W 074°04'0 0.0
2017-Aug-05 23:30N 40°41' W 074°04'0 0.0
2017-Aug-05 23:00N 40°41' W 074°04'0 0.0
2017-Aug-05 22:30N 40°41' W 074°04'0 0.0
2017-Aug-05 22:00N 40°41' W 074°04'3 5.3
2017-Aug-05 21:30N 40°39' W 074°03'5 9.5
2017-Aug-05 20:59N 40°34' W 074°01'38 1.9
2017-Aug-05 01:05N 40°19' W 073°15'0 0.0
2017-Aug-05 00:54N 40°19' W 073°15'4 0.9
2017-Aug-04 19:56N 40°17' W 073°21'3 5.9
2017-Aug-04 19:27N 40°19' W 073°19'1 2.0
2017-Aug-04 18:57N 40°19' W 073°20'1 1.7
2017-Aug-04 18:30N 40°19' W 073°21'2 3.3
2017-Aug-04 18:00N 40°18' W 073°23'2 1.5
2017-Aug-04 16:49N 40°19' W 073°25'0 0.2
2017-Aug-04 16:26N 40°19' W 073°25'15 3.2
2017-Aug-04 11:46N 40°26' W 073°42'1 2.3
2017-Aug-04 11:30N 40°27' W 073°43'4 2.9
2017-Aug-04 09:59N 40°30' W 073°47'7 5.6
2017-Aug-04 08:45N 40°30' W 073°56'2 8.1
2017-Aug-04 08:27N 40°31' W 073°59'4 8.0
2017-Aug-04 08:00N 40°34' W 074°01'4 8.8
2017-Aug-04 07:30N 40°38' W 074°03'3 6.0
2017-Aug-04 07:00N 40°41' W 074°04'0 0.0
2017-Aug-04 06:30N 40°41' W 074°04'0 0.0
2017-Aug-04 06:00N 40°41' W 074°04'0 0.0
2017-Aug-04 05:30N 40°41' W 074°04'0 0.0
2017-Aug-04 05:00N 40°41' W 074°04'0 0.0
2017-Aug-04 04:30N 40°41' W 074°04'0 0.0
2017-Aug-04 04:00N 40°41' W 074°04'0 0.0
2017-Aug-04 03:30N 40°41' W 074°04'0 0.0
2017-Aug-04 03:00N 40°41' W 074°04'0 0.0
2017-Aug-04 02:30N 40°41' W 074°04'0 0.0
2017-Aug-04 02:00N 40°41' W 074°04'0 0.0
2017-Aug-04 01:30N 40°41' W 074°04'0 0.0
2017-Aug-04 01:00N 40°41' W 074°04'0 0.0
2017-Aug-04 00:30N 40°41' W 074°04'0 0.0
2017-Aug-04 00:00N 40°41' W 074°04'2 5.0
2017-Aug-03 23:30N 40°41' W 074°01'3 6.8
2017-Aug-03 23:00N 40°44' W 073°58'3 5.9
2017-Aug-03 22:26N 40°47' W 073°56'3 5.8
2017-Aug-03 21:59N 40°48' W 073°53'  

Dump ship's entire track history